EIN1PR KBDL-EIDW
Flight info
| Callsign | EIN1PR |
|---|---|
| Flight time | N/A |
| Altitude | 31000 |
| Route | PUT DCT BOS DCT ALLEX N357C JOOPY/M079F340 DCT 49N050W 52N040W 53N030W 54N020W DCT DOGAL DCT BEXET/N0450F350 DCT OLAPO OLAPO4L |
| Aircraft | A21N/M-SDE2E3GHIJ4J7M3P2RWXY/LB1D1 |
Departure
| Time | 2026-04-27 13:14 |
|---|---|
| Airport | Bradley International Airport (KBDL) |
Arrival
| Time | N/A |
|---|---|
| Airport | Dublin Airport (EIDW) |
| Time | Latitude | Longitude | Altitude | Speed | Heading |
|---|---|---|---|---|---|
| 2026-04-27 13:03 | 41.92925 | -72.68143 | 182 ft | 0 kts | 0° |
| 2026-04-27 13:05 | 41.92913 | -72.68143 | 182 ft | 2 kts | 3° |
| 2026-04-27 13:06 | 41.92899 | -72.68148 | 182 ft | 2 kts | 21° |
| 2026-04-27 13:06 | 41.92885 | -72.68157 | 182 ft | 2 kts | 34° |
| 2026-04-27 13:06 | 41.92874 | -72.68170 | 182 ft | 2 kts | 48° |
| 2026-04-27 13:06 | 41.92865 | -72.68186 | 182 ft | 2 kts | 62° |
| 2026-04-27 13:07 | 41.92859 | -72.68205 | 182 ft | 2 kts | 76° |
| 2026-04-27 13:07 | 41.92857 | -72.68221 | 182 ft | 0 kts | 87° |
| 2026-04-27 13:07 | 41.92857 | -72.68230 | 182 ft | 0 kts | 89° |
| 2026-04-27 13:10 | 41.92863 | -72.68160 | 182 ft | 13 kts | 68° |
| 2026-04-27 13:10 | 41.92936 | -72.68051 | 182 ft | 16 kts | 40° |
| 2026-04-27 13:10 | 41.93036 | -72.68017 | 182 ft | 15 kts | 343° |
| 2026-04-27 13:10 | 41.93122 | -72.68088 | 184 ft | 13 kts | 319° |
| 2026-04-27 13:11 | 41.93193 | -72.68179 | 185 ft | 16 kts | 315° |
| 2026-04-27 13:11 | 41.93298 | -72.68325 | 185 ft | 26 kts | 314° |
| 2026-04-27 13:11 | 41.93442 | -72.68518 | 185 ft | 30 kts | 316° |
| 2026-04-27 13:11 | 41.93572 | -72.68718 | 184 ft | 27 kts | 293° |
| 2026-04-27 13:12 | 41.93531 | -72.68945 | 182 ft | 26 kts | 225° |
| 2026-04-27 13:12 | 41.93406 | -72.69119 | 179 ft | 25 kts | 224° |
| 2026-04-27 13:12 | 41.93274 | -72.69285 | 174 ft | 25 kts | 223° |
| 2026-04-27 13:12 | 41.93162 | -72.69430 | 171 ft | 20 kts | 225° |
| 2026-04-27 13:13 | 41.93148 | -72.69564 | 174 ft | 14 kts | 310° |
| 2026-04-27 13:13 | 41.93210 | -72.69627 | 178 ft | 6 kts | 8° |
| 2026-04-27 13:13 | 41.93287 | -72.69547 | 177 ft | 39 kts | 43° |
| 2026-04-27 13:13 | 41.93664 | -72.69054 | 183 ft | 110 kts | 44° |
| 2026-04-27 13:14 | 41.94361 | -72.68140 | 179 ft | 167 kts | 43° |
| 2026-04-27 13:14 | 41.95251 | -72.66972 | 615 ft | 181 kts | 45° |
| 2026-04-27 13:14 | 41.95958 | -72.65662 | 1466 ft | 175 kts | 59° |
| 2026-04-27 13:14 | 41.96442 | -72.64239 | 2245 ft | 173 kts | 76° |
| 2026-04-27 13:15 | 41.96509 | -72.62552 | 2643 ft | 190 kts | 88° |
| 2026-04-27 13:15 | 41.96444 | -72.60691 | 3035 ft | 208 kts | 89° |
| 2026-04-27 13:15 | 41.96376 | -72.58640 | 3384 ft | 229 kts | 89° |
| 2026-04-27 13:15 | 41.96326 | -72.56450 | 3884 ft | 244 kts | 88° |
| 2026-04-27 13:16 | 41.96286 | -72.54172 | 4640 ft | 247 kts | 88° |
| 2026-04-27 13:16 | 41.96253 | -72.51861 | 5461 ft | 248 kts | 88° |
| 2026-04-27 13:16 | 41.96227 | -72.49557 | 6227 ft | 249 kts | 88° |
| 2026-04-27 13:16 | 41.96204 | -72.47223 | 6976 ft | 251 kts | 88° |
| 2026-04-27 13:17 | 41.96183 | -72.44884 | 7643 ft | 255 kts | 87° |
| 2026-04-27 13:17 | 41.96162 | -72.42461 | 8279 ft | 260 kts | 87° |
| 2026-04-27 13:17 | 41.96141 | -72.40021 | 8900 ft | 264 kts | 87° |
| 2026-04-27 13:17 | 41.96121 | -72.37529 | 9508 ft | 268 kts | 87° |
| 2026-04-27 13:18 | 41.96100 | -72.35015 | 10095 ft | 272 kts | 87° |
| 2026-04-27 13:18 | 41.96077 | -72.32434 | 10662 ft | 277 kts | 88° |
| 2026-04-27 13:18 | 41.96057 | -72.29793 | 10926 ft | 292 kts | 87° |
| 2026-04-27 13:18 | 41.96035 | -72.27007 | 11181 ft | 307 kts | 88° |
| 2026-04-27 13:19 | 41.96009 | -72.24056 | 11451 ft | 322 kts | 88° |
| 2026-04-27 13:19 | 41.95981 | -72.20953 | 11724 ft | 337 kts | 88° |
| 2026-04-27 13:19 | 41.95951 | -72.17784 | 11994 ft | 350 kts | 88° |
| 2026-04-27 13:19 | 41.95916 | -72.14405 | 12227 ft | 364 kts | 88° |
| 2026-04-27 13:20 | 41.95881 | -72.10969 | 12454 ft | 377 kts | 88° |
| 2026-04-27 13:20 | 41.95842 | -72.07381 | 12728 ft | 388 kts | 88° |
| 2026-04-27 13:20 | 41.95800 | -72.03725 | 13158 ft | 394 kts | 88° |
| 2026-04-27 13:20 | 41.95755 | -72.00040 | 13697 ft | 396 kts | 88° |
| 2026-04-27 13:21 | 41.95710 | -71.96307 | 14224 ft | 399 kts | 88° |
| 2026-04-27 13:21 | 41.95665 | -71.92615 | 14706 ft | 402 kts | 88° |
| 2026-04-27 13:21 | 41.95641 | -71.88838 | 15168 ft | 404 kts | 85° |
| 2026-04-27 13:21 | 41.96034 | -71.85136 | 15603 ft | 404 kts | 73° |
| 2026-04-27 13:22 | 41.96984 | -71.81619 | 16069 ft | 403 kts | 62° |
| 2026-04-27 13:22 | 41.98383 | -71.78383 | 16530 ft | 404 kts | 56° |
| 2026-04-27 13:22 | 41.99908 | -71.75186 | 16956 ft | 407 kts | 55° |
| 2026-04-27 13:22 | 42.01448 | -71.71991 | 17373 ft | 410 kts | 55° |
| 2026-04-27 13:23 | 42.03013 | -71.68728 | 17788 ft | 413 kts | 55° |
| 2026-04-27 13:23 | 42.04566 | -71.65479 | 18196 ft | 416 kts | 55° |
| 2026-04-27 13:23 | 42.06119 | -71.62217 | 18595 ft | 419 kts | 55° |
| 2026-04-27 13:23 | 42.07684 | -71.58920 | 18966 ft | 422 kts | 55° |
| 2026-04-27 13:24 | 42.09271 | -71.55567 | 19348 ft | 425 kts | 55° |
| 2026-04-27 13:24 | 42.10851 | -71.52225 | 19730 ft | 427 kts | 55° |
| 2026-04-27 13:24 | 42.12437 | -71.48865 | 20095 ft | 430 kts | 55° |
| 2026-04-27 13:24 | 42.14047 | -71.45450 | 20442 ft | 433 kts | 55° |
| 2026-04-27 13:25 | 42.15667 | -71.42007 | 20791 ft | 436 kts | 55° |
| 2026-04-27 13:25 | 42.17299 | -71.38533 | 21155 ft | 438 kts | 55° |
| 2026-04-27 13:25 | 42.18925 | -71.35074 | 21483 ft | 440 kts | 55° |
| 2026-04-27 13:25 | 42.20555 | -71.31596 | 21798 ft | 443 kts | 56° |
| 2026-04-27 13:26 | 42.22212 | -71.28059 | 22108 ft | 446 kts | 56° |
| 2026-04-27 13:26 | 42.23852 | -71.24554 | 22426 ft | 448 kts | 56° |
| 2026-04-27 13:26 | 42.25518 | -71.20988 | 22822 ft | 448 kts | 56° |
| 2026-04-27 13:26 | 42.27177 | -71.17429 | 23287 ft | 446 kts | 56° |
| 2026-04-27 13:27 | 42.28818 | -71.13906 | 23730 ft | 445 kts | 56° |
| 2026-04-27 13:27 | 42.30454 | -71.10387 | 24141 ft | 444 kts | 56° |
| 2026-04-27 13:27 | 42.32086 | -71.06876 | 24535 ft | 444 kts | 56° |
| 2026-04-27 13:27 | 42.33732 | -71.03334 | 24958 ft | 443 kts | 56° |
| 2026-04-27 13:28 | 42.35368 | -70.99869 | 25356 ft | 441 kts | 54° |
| 2026-04-27 13:28 | 42.37135 | -70.96478 | 25751 ft | 439 kts | 51° |
| 2026-04-27 13:28 | 42.38849 | -70.93349 | 26134 ft | 438 kts | 51° |
| 2026-04-27 13:28 | 42.40655 | -70.90075 | 26514 ft | 437 kts | 51° |
| 2026-04-27 13:29 | 42.42467 | -70.86794 | 26877 ft | 436 kts | 51° |
| 2026-04-27 13:29 | 42.44268 | -70.83524 | 27236 ft | 435 kts | 51° |
| 2026-04-27 13:29 | 42.46053 | -70.80276 | 27583 ft | 434 kts | 51° |
| 2026-04-27 13:29 | 42.47848 | -70.77002 | 27926 ft | 433 kts | 51° |
| 2026-04-27 13:30 | 42.49654 | -70.73706 | 28257 ft | 432 kts | 51° |
| 2026-04-27 13:30 | 42.51427 | -70.70464 | 28581 ft | 431 kts | 51° |
| 2026-04-27 13:30 | 42.53217 | -70.67190 | 28906 ft | 430 kts | 51° |
| 2026-04-27 13:30 | 42.54987 | -70.63946 | 29214 ft | 429 kts | 51° |
| 2026-04-27 13:31 | 42.56754 | -70.60702 | 29510 ft | 429 kts | 51° |
| 2026-04-27 13:31 | 42.58536 | -70.57430 | 29772 ft | 429 kts | 51° |
| 2026-04-27 13:31 | 42.60319 | -70.54149 | 29994 ft | 430 kts | 51° |
| 2026-04-27 13:31 | 42.62076 | -70.50916 | 30198 ft | 431 kts | 51° |
| 2026-04-27 13:32 | 42.63858 | -70.47633 | 30413 ft | 432 kts | 51° |
| 2026-04-27 13:32 | 42.65629 | -70.44366 | 30623 ft | 432 kts | 51° |
| 2026-04-27 13:32 | 42.67421 | -70.41054 | 30814 ft | 433 kts | 51° |
| 2026-04-27 13:32 | 42.69206 | -70.37756 | 30979 ft | 434 kts | 51° |
| 2026-04-27 13:33 | 42.71006 | -70.34425 | 31166 ft | 434 kts | 51° |
| 2026-04-27 13:33 | 42.72791 | -70.31117 | 31276 ft | 436 kts | 51° |
| 2026-04-27 13:33 | 42.76362 | -70.24487 | 31282 ft | 436 kts | 51° |
| 2026-04-27 13:34 | 42.79958 | -70.17796 | 31288 ft | 436 kts | 51° |
| 2026-04-27 13:34 | 42.83507 | -70.11177 | 31288 ft | 435 kts | 51° |
| 2026-04-27 13:35 | 42.87080 | -70.04500 | 31288 ft | 435 kts | 51° |
| 2026-04-27 13:35 | 42.90627 | -69.97857 | 31282 ft | 434 kts | 52° |
| 2026-04-27 13:36 | 42.94207 | -69.91136 | 31285 ft | 434 kts | 52° |
| 2026-04-27 13:36 | 42.97757 | -69.84457 | 31280 ft | 435 kts | 52° |
| 2026-04-27 13:37 | 43.01318 | -69.77742 | 31288 ft | 435 kts | 52° |
| 2026-04-27 13:37 | 43.04869 | -69.71030 | 31284 ft | 436 kts | 52° |
| 2026-04-27 13:38 | 43.08411 | -69.64320 | 31284 ft | 436 kts | 52° |
| 2026-04-27 13:38 | 43.11959 | -69.57584 | 31284 ft | 437 kts | 52° |
| 2026-04-27 13:39 | 43.15502 | -69.50842 | 31286 ft | 437 kts | 52° |
| 2026-04-27 13:39 | 43.19073 | -69.44031 | 31287 ft | 437 kts | 52° |
| 2026-04-27 13:40 | 43.22702 | -69.37093 | 31285 ft | 438 kts | 52° |
| 2026-04-27 13:40 | 43.26264 | -69.30268 | 31294 ft | 438 kts | 53° |
| 2026-04-27 13:41 | 43.29851 | -69.23377 | 31290 ft | 438 kts | 53° |
| 2026-04-27 13:41 | 43.33452 | -69.16446 | 31292 ft | 439 kts | 53° |
| 2026-04-27 13:42 | 43.36979 | -69.09641 | 31289 ft | 440 kts | 53° |
| 2026-04-27 13:42 | 43.40502 | -69.02827 | 31292 ft | 439 kts | 53° |
| 2026-04-27 13:43 | 43.44043 | -68.95963 | 31292 ft | 439 kts | 53° |
| 2026-04-27 13:43 | 43.47557 | -68.89132 | 31289 ft | 440 kts | 53° |
| 2026-04-27 13:44 | 43.51084 | -68.82268 | 31291 ft | 440 kts | 53° |
| 2026-04-27 13:44 | 43.54611 | -68.75380 | 31290 ft | 440 kts | 53° |
| 2026-04-27 13:45 | 43.58161 | -68.68432 | 31292 ft | 440 kts | 53° |
| 2026-04-27 13:45 | 43.61720 | -68.61453 | 31291 ft | 440 kts | 54° |
| 2026-04-27 13:46 | 43.65255 | -68.54502 | 31294 ft | 440 kts | 54° |
| 2026-04-27 13:46 | 43.68754 | -68.47607 | 31295 ft | 440 kts | 54° |
| 2026-04-27 13:47 | 43.72266 | -68.40670 | 31297 ft | 441 kts | 54° |
| 2026-04-27 13:47 | 43.75769 | -68.33733 | 31294 ft | 441 kts | 55° |
| 2026-04-27 13:48 | 43.79295 | -68.26734 | 31296 ft | 441 kts | 55° |
| 2026-04-27 13:48 | 43.82809 | -68.19742 | 31297 ft | 442 kts | 55° |